Time;durP1;ratioP1;P1;durP2;ratioP2;P2;SDS_P1;SDS_P2;PMS_P1;PMS_P2;Temp;Humidity;BMP_temperature;BMP_pressure;BME280_temperature;BME280_humidity;BME280_pressure;Samples;Min_cycle;Max_cycle;Signal;HPM_P1;HPM_P2
2021/11/22 00:02:22;;;;;;;6.10;3.22;;;;;;;0.82;95.94;99384.74;1580471;88;21631;-74
2021/11/22 00:04:51;;;;;;;5.37;2.98;;;;;;;0.77;95.64;99387.80;1594824;88;20964;-73
2021/11/22 00:07:18;;;;;;;5.62;3.22;;;;;;;0.81;95.76;99393.30;1598735;88;21009;-74
2021/11/22 00:09:45;;;;;;;6.25;3.40;;;;;;;0.82;95.75;99396.30;1605434;88;21150;-74
2021/11/22 00:12:12;;;;;;;10.63;4.45;;;;;;;0.85;95.83;99387.27;1580582;89;20984;-74
2021/11/22 00:14:39;;;;;;;8.10;4.03;;;;;;;0.87;95.88;99395.81;1614481;87;20977;-74
2021/11/22 00:17:06;;;;;;;9.60;3.97;;;;;;;0.90;95.91;99398.34;1605670;87;20987;-74
2021/11/22 00:19:34;;;;;;;6.28;3.30;;;;;;;0.94;95.96;99399.98;1635345;86;21489;-75
2021/11/22 00:22:02;;;;;;;7.55;3.85;;;;;;;0.93;95.74;99402.16;1604594;88;21061;-74
2021/11/22 00:24:29;;;;;;;6.60;3.45;;;;;;;0.92;95.80;99395.30;1618964;86;21038;-74
2021/11/22 00:26:56;;;;;;;5.80;3.10;;;;;;;0.86;95.56;99400.08;1623935;87;21014;-74
2021/11/22 00:29:22;;;;;;;6.25;3.90;;;;;;;0.75;95.49;99403.66;1626847;86;21034;-74
2021/11/22 00:31:51;;;;;;;6.95;3.30;;;;;;;0.70;95.64;99410.58;1617019;87;20926;-74
2021/11/22 00:34:18;;;;;;;6.45;3.12;;;;;;;0.56;95.32;99411.61;1614833;86;21022;-74
2021/11/22 00:36:44;;;;;;;4.80;2.90;;;;;;;0.38;95.17;99411.37;1627574;86;20963;-73
2021/11/22 00:39:11;;;;;;;5.92;2.87;;;;;;;0.26;95.23;99413.23;1615640;87;21514;-74
2021/11/22 00:41:38;;;;;;;6.60;3.57;;;;;;;0.18;95.36;99423.14;1620442;87;20939;-74
2021/11/22 00:44:05;;;;;;;5.33;3.10;;;;;;;0.13;95.51;99421.05;1626639;87;21512;-74
2021/11/22 00:46:33;;;;;;;4.92;3.08;;;;;;;0.06;95.37;99427.12;1623215;86;21454;-74
2021/11/22 00:49:00;;;;;;;5.90;3.37;;;;;;;-0.02;95.50;99429.75;1619873;86;21007;-74
2021/11/22 00:51:26;;;;;;;3.17;2.30;;;;;;;-0.03;95.63;99432.31;1632253;86;21500;-74
2021/11/22 00:53:53;;;;;;;4.23;2.20;;;;;;;-0.07;95.60;99438.36;1616591;86;20962;-74
2021/11/22 00:56:21;;;;;;;5.47;2.45;;;;;;;-0.13;95.53;99440.98;1628140;86;20947;-74
2021/11/22 00:58:48;;;;;;;5.83;2.40;;;;;;;-0.18;95.62;99440.16;1624408;87;21065;-74
2021/11/22 01:01:15;;;;;;;3.70;2.57;;;;;;;-0.19;95.72;99444.89;1631760;87;20895;-73
2021/11/22 01:03:43;;;;;;;4.83;2.67;;;;;;;-0.18;95.87;99447.86;1606821;87;21669;-74
2021/11/22 01:06:10;;;;;;;9.53;3.30;;;;;;;-0.13;96.09;99446.11;1622329;87;20951;-74
2021/11/22 01:08:36;;;;;;;5.72;3.15;;;;;;;-0.06;96.23;99446.46;1617964;87;21224;-73
2021/11/22 01:11:03;;;;;;;6.10;3.03;;;;;;;-0.03;96.12;99452.84;1622455;86;22015;-74
2021/11/22 01:13:30;;;;;;;6.20;2.47;;;;;;;-0.03;95.99;99443.86;1617928;86;21003;-73
2021/11/22 01:15:57;;;;;;;4.72;2.10;;;;;;;-0.06;95.72;99445.17;1624072;87;21662;-74
2021/11/22 01:18:23;;;;;;;11.25;5.12;;;;;;;-0.12;95.66;99447.80;1615571;86;20953;-73
2021/11/22 01:20:50;;;;;;;9.00;3.57;;;;;;;-0.19;95.45;99444.89;1615614;86;21023;-73
2021/11/22 01:23:18;;;;;;;5.62;3.25;;;;;;;-0.31;95.38;99453.09;1590875;88;21212;-73
2021/11/22 01:25:45;;;;;;;5.42;2.72;;;;;;;-0.35;95.47;99456.53;1627101;86;21460;-73
2021/11/22 01:28:12;;;;;;;4.10;2.42;;;;;;;-0.41;95.51;99452.73;1624203;86;21483;-73
2021/11/22 01:30:39;;;;;;;8.30;4.03;;;;;;;-0.44;95.72;99461.73;1623190;86;21016;-74
2021/11/22 01:33:06;;;;;;;5.60;2.87;;;;;;;-0.47;95.83;99454.91;1623343;87;20985;-74
2021/11/22 01:35:33;;;;;;;4.70;2.00;;;;;;;-0.51;95.77;99466.47;1620131;87;21030;-74
2021/11/22 01:38:00;;;;;;;3.83;2.20;;;;;;;-0.55;95.73;99468.66;1625102;86;20945;-73
2021/11/22 01:40:27;;;;;;;4.00;1.87;;;;;;;-0.57;95.79;99467.36;1614204;86;21412;-74
2021/11/22 01:42:56;;;;;;;4.47;2.58;;;;;;;-0.68;95.78;99444.34;1627975;87;20975;-74
2021/11/22 01:45:24;;;;;;;3.30;1.82;;;;;;;-0.56;95.89;99474.62;1628295;86;21012;-74
2021/11/22 01:47:51;;;;;;;4.95;2.60;;;;;;;-0.55;95.98;99473.78;1615079;86;21899;-74
2021/11/22 01:50:21;;;;;;;2.60;1.72;;;;;;;-0.53;95.93;99477.20;1617547;86;20929;-74
2021/11/22 01:52:50;;;;;;;7.50;2.42;;;;;;;-0.49;96.01;99477.58;1615637;87;21686;-74
2021/11/22 01:55:21;;;;;;;4.80;2.60;;;;;;;-0.44;96.06;99478.41;1602728;88;21025;-74
2021/11/22 01:57:50;;;;;;;3.85;1.98;;;;;;;-0.37;96.22;99474.92;1602521;88;20916;-74
2021/11/22 02:00:34;;;;;;;4.55;1.95;;;;;;;-0.27;96.38;99482.98;1602812;88;21060;-74
2021/11/22 02:03:02;;;;;;;7.67;2.65;;;;;;;-0.16;96.31;99485.91;1610291;87;20970;-73
2021/11/22 02:05:29;;;;;;;7.10;3.30;;;;;;;-0.15;96.07;99485.04;1619868;87;21452;-74
2021/11/22 02:07:57;;;;;;;4.30;2.85;;;;;;;-0.25;95.29;99483.84;1628778;86;20989;-74
2021/11/22 02:10:25;;;;;;;8.08;3.50;;;;;;;-0.25;95.29;99483.84;1616937;86;21531;-74
2021/11/22 02:12:54;;;;;;;6.25;2.85;;;;;;;-0.34;95.29;99496.70;1615149;87;21807;-74
2021/11/22 02:15:22;;;;;;;7.83;4.22;;;;;;;-0.45;95.23;99501.05;1620910;86;20933;-74
2021/11/22 02:17:50;;;;;;;8.95;3.85;;;;;;;-0.51;95.28;99503.66;1594857;88;21012;-73
2021/11/22 02:20:23;;;;;;;6.62;3.90;;;;;;;-0.58;95.30;99503.29;1599886;87;21117;-74
2021/11/22 02:22:54;;;;;;;7.62;3.80;;;;;;;-0.62;95.48;99509.28;1607698;87;21488;-74
2021/11/22 02:25:24;;;;;;;5.25;2.95;;;;;;;-0.68;95.49;99509.73;1611184;87;21053;-74
2021/11/22 02:27:52;;;;;;;6.00;2.83;;;;;;;-0.71;95.59;99518.72;1605317;87;21457;-74
2021/11/22 02:30:29;;;;;;;5.45;2.65;;;;;;;-0.75;95.56;99515.77;1603525;87;21021;-74
2021/11/22 02:32:52;;;;;;;6.08;2.05;;;;;;;-0.80;95.59;99523.90;1608409;87;20926;-74
2021/11/22 02:35:20;;;;;;;4.72;2.02;;;;;;;-0.84;95.47;99533.77;1613197;87;20980;-74
2021/11/22 02:37:48;;;;;;;5.42;1.82;;;;;;;-0.88;95.50;99537.17;1600320;88;21049;-73
2021/11/22 02:40:15;;;;;;;2.35;1.20;;;;;;;-0.81;95.84;99536.31;1612958;87;21085;-74
2021/11/22 02:42:44;;;;;;;2.47;1.05;;;;;;;-0.69;96.27;99537.52;1607975;87;20975;-74
2021/11/22 02:45:15;;;;;;;3.12;1.50;;;;;;;-0.51;96.74;99530.16;1615724;87;20988;-74
2021/11/22 02:47:42;;;;;;;1.98;1.20;;;;;;;-0.39;96.73;99529.26;1588150;89;20983;-74
2021/11/22 02:50:11;;;;;;;4.28;1.62;;;;;;;-0.35;96.50;99533.93;1608657;87;21899;-72
2021/11/22 02:52:40;;;;;;;1.60;1.12;;;;;;;-0.35;96.30;99533.50;1608549;87;21049;-74
2021/11/22 02:55:11;;;;;;;6.20;1.70;;;;;;;-0.33;96.25;99539.48;1610358;88;20902;-73
2021/11/22 02:57:39;;;;;;;2.65;1.50;;;;;;;-0.34;96.18;99548.02;1609860;87;21541;-74
2021/11/22 03:00:10;;;;;;;3.40;1.42;;;;;;;-0.33;96.21;99554.88;1604184;87;21021;-73
2021/11/22 03:02:38;;;;;;;2.47;1.20;;;;;;;-0.38;95.97;99560.45;1604794;88;21218;-73
2021/11/22 03:05:05;;;;;;;1.57;0.90;;;;;;;-0.41;96.11;99561.75;1598229;87;21487;-73
2021/11/22 03:07:32;;;;;;;;;;;;;;;-0.36;96.48;99560.02;1600090;87;21452;-72
2021/11/22 03:09:58;;;;;;;2.05;0.95;;;;;;;-0.30;96.65;99552.28;1592610;88;20159;-73
2021/11/22 03:12:25;;;;;;;2.37;1.12;;;;;;;-0.25;96.72;99557.40;1606771;87;20989;-73
2021/11/22 03:14:54;;;;;;;2.52;1.40;;;;;;;-0.21;96.73;99567.20;1598677;87;21032;-73
2021/11/22 03:17:20;;;;;;;3.83;1.70;;;;;;;-0.23;96.55;99564.20;1598960;87;21029;-74
2021/11/22 03:19:47;;;;;;;2.53;1.10;;;;;;;-0.21;96.50;99563.35;1606338;87;20991;-73
2021/11/22 03:22:14;;;;;;;1.87;1.03;;;;;;;-0.14;96.82;99577.84;1614039;88;20998;-73
2021/11/22 03:24:41;;;;;;;1.50;0.93;;;;;;;-0.10;96.86;99580.38;1605278;87;20946;-73
2021/11/22 03:27:07;;;;;;;3.65;1.22;;;;;;;-0.11;96.60;99577.81;1605672;87;21449;-73
2021/11/22 03:29:34;;;;;;;1.85;1.15;;;;;;;-0.06;96.66;99581.20;1614905;87;20951;-73
2021/11/22 03:32:01;;;;;;;2.92;1.30;;;;;;;-0.02;96.64;99588.05;1602625;87;20998;-73
2021/11/22 03:34:29;;;;;;;4.00;1.13;;;;;;;0.02;96.66;99584.58;1601746;87;21553;-74
2021/11/22 03:37:02;;;;;;;7.05;1.40;;;;;;;0.04;96.65;99585.87;1600560;87;21013;-73
2021/11/22 03:39:26;;;;;;;1.98;1.20;;;;;;;0.05;96.71;99592.25;1600077;87;21100;-73
2021/11/22 03:41:55;;;;;;;2.75;0.98;;;;;;;0.07;96.68;99600.81;1581997;87;20957;-73
2021/11/22 03:44:22;;;;;;;1.22;0.90;;;;;;;0.14;96.86;99589.65;1596737;87;20978;-74
2021/11/22 03:46:53;;;;;;;5.75;1.67;;;;;;;0.23;97.00;99590.45;1607275;87;21534;-74
2021/11/22 03:49:21;;;;;;;3.75;1.42;;;;;;;0.26;96.87;99594.27;1607852;87;21003;-73
2021/11/22 03:51:49;;;;;;;2.15;0.90;;;;;;;0.28;96.95;99591.23;1609946;87;21891;-73
2021/11/22 03:54:17;;;;;;;1.20;0.80;;;;;;;0.30;96.89;99590.36;1598304;87;20946;-73
2021/11/22 03:56:44;;;;;;;1.47;0.70;;;;;;;0.31;96.98;99589.52;1606251;88;20926;-73
2021/11/22 03:59:12;;;;;;;2.25;0.70;;;;;;;0.30;96.85;99592.94;1614849;87;25061;-73
2021/11/22 04:01:39;;;;;;;0.93;0.68;;;;;;;0.28;96.89;99600.23;1599573;88;21010;-73
2021/11/22 04:04:06;;;;;;;;;;;;;;;0.25;96.98;99602.82;1616698;88;21765;-73
2021/11/22 04:06:33;;;;;;;2.10;0.60;;;;;;;0.24;97.09;99604.98;1610348;87;20163;-74
2021/11/22 04:09:00;;;;;;;1.25;0.60;;;;;;;0.24;97.29;99602.41;1609377;87;21448;-74
2021/11/22 04:11:27;;;;;;;1.10;0.57;;;;;;;0.28;97.37;99601.11;1607151;88;20976;-73
2021/11/22 04:13:54;;;;;;;2.20;0.60;;;;;;;0.30;97.38;99606.21;1603095;87;21565;-73
2021/11/22 04:16:21;;;;;;;1.10;0.53;;;;;;;0.32;97.58;99605.78;1601127;86;21915;-73
2021/11/22 04:18:48;;;;;;;1.40;0.68;;;;;;;0.35;97.64;99608.32;1614940;86;20921;-73
2021/11/22 04:21:18;;;;;;;0.62;0.50;;;;;;;0.38;97.72;99610.86;1627551;86;21562;-73
2021/11/22 04:23:45;;;;;;;2.33;0.50;;;;;;;0.42;97.68;99614.69;1623635;86;21083;-73
2021/11/22 04:26:12;;;;;;;4.78;0.40;;;;;;;0.46;97.73;99619.36;1629401;87;21020;-73
2021/11/22 04:28:39;;;;;;;2.60;0.62;;;;;;;0.54;97.80;99624.45;1613189;86;21203;-73
2021/11/22 04:31:07;;;;;;;1.27;0.57;;;;;;;0.58;97.73;99625.67;1613847;86;21615;-74
2021/11/22 04:33:36;;;;;;;1.27;0.50;;;;;;;0.60;97.63;99618.81;1612190;86;20993;-74
2021/11/22 04:36:03;;;;;;;2.60;0.72;;;;;;;0.65;97.58;99621.36;1616410;86;20913;-74
2021/11/22 04:38:30;;;;;;;1.25;0.72;;;;;;;0.68;97.54;99619.20;1621073;86;20977;-74
2021/11/22 04:40:57;;;;;;;1.05;0.65;;;;;;;0.71;97.54;99624.30;1596876;88;21200;-73
2021/11/22 04:43:23;;;;;;;1.12;0.50;;;;;;;0.70;97.46;99630.29;1612662;86;20975;-73
2021/11/22 04:45:50;;;;;;;0.93;0.60;;;;;;;0.63;97.33;99634.20;1627671;86;20945;-73
2021/11/22 04:48:17;;;;;;;3.60;0.70;;;;;;;0.55;97.15;99644.13;1623077;86;20937;-74
2021/11/22 04:50:43;;;;;;;2.20;0.82;;;;;;;0.52;97.29;99655.27;1627073;86;21082;-73
2021/11/22 04:53:10;;;;;;;1.63;0.87;;;;;;;0.58;97.42;99656.51;1601171;87;21062;-73
2021/11/22 04:55:37;;;;;;;2.80;0.90;;;;;;;0.58;97.42;99656.51;1624942;86;21475;-73
2021/11/22 04:58:08;;;;;;;3.17;0.93;;;;;;;0.65;97.65;99659.46;1617951;86;20968;-73
2021/11/22 05:00:35;;;;;;;3.15;1.12;;;;;;;0.72;97.55;99667.11;1618613;86;20989;-73
2021/11/22 05:03:04;;;;;;;4.60;0.95;;;;;;;0.74;97.52;99672.66;1618193;87;20929;-72
2021/11/22 05:05:31;;;;;;;1.50;0.80;;;;;;;0.79;97.87;99671.36;1619396;86;21211;-73
2021/11/22 05:07:59;;;;;;;3.05;1.17;;;;;;;0.78;97.67;99677.34;1617811;86;20980;-71
2021/11/22 05:10:28;;;;;;;;;;;;;;;0.76;97.59;99675.23;1622341;86;20925;-72
2021/11/22 05:12:54;;;;;;;3.10;1.00;;;;;;;0.76;97.53;99673.95;1615444;86;20226;-73
2021/11/22 05:15:20;;;;;;;1.60;1.03;;;;;;;0.73;97.54;99672.66;1624867;86;20901;-71
2021/11/22 05:17:47;;;;;;;2.70;1.20;;;;;;;0.61;97.50;99657.77;1606259;87;21423;-72
2021/11/22 05:20:14;;;;;;;3.58;1.02;;;;;;;0.68;97.46;99673.16;1606655;87;20973;-72
2021/11/22 05:22:40;;;;;;;3.37;1.12;;;;;;;0.64;97.42;99675.76;1614736;87;20901;-72
2021/11/22 05:25:08;;;;;;;2.45;1.22;;;;;;;0.60;97.40;99674.50;1610777;87;20989;-72
2021/11/22 05:27:34;;;;;;;2.40;1.05;;;;;;;0.54;97.27;99674.11;1609056;87;21037;-72
2021/11/22 05:30:05;;;;;;;3.37;1.07;;;;;;;0.48;97.31;99678.02;1604894;87;21893;-72
2021/11/22 05:32:32;;;;;;;2.65;1.27;;;;;;;0.42;97.32;99684.45;1596946;87;20962;-72
2021/11/22 05:34:59;;;;;;;2.70;1.20;;;;;;;0.37;97.35;99686.22;1607544;88;21497;-72
2021/11/22 05:37:31;;;;;;;2.23;0.90;;;;;;;0.34;97.46;99683.68;1609632;88;20986;-72
2021/11/22 05:39:55;;;;;;;3.33;0.85;;;;;;;0.33;97.46;99681.95;1613682;87;20906;-71
2021/11/22 05:42:22;;;;;;;1.72;0.90;;;;;;;0.31;97.47;99682.38;1607509;87;21015;-72
2021/11/22 05:44:49;;;;;;;1.57;0.93;;;;;;;0.28;97.39;99683.69;1610574;87;21556;-72
2021/11/22 05:47:16;;;;;;;2.47;1.20;;;;;;;0.24;97.44;99685.44;1611210;87;21707;-72
2021/11/22 05:49:43;;;;;;;1.57;0.85;;;;;;;0.19;97.33;99689.30;1604718;88;20938;-72
2021/11/22 05:52:11;;;;;;;2.10;0.80;;;;;;;0.18;97.37;99694.02;1606338;87;21482;-72
2021/11/22 05:54:47;;;;;;;1.35;0.90;;;;;;;0.11;97.34;99691.09;1608432;87;21930;-71
2021/11/22 05:57:11;;;;;;;3.77;1.50;;;;;;;0.08;97.29;99700.06;1607838;87;21049;-72
2021/11/22 05:59:38;;;;;;;2.70;1.17;;;;;;;0.02;97.26;99700.09;1606380;87;20955;-74
2021/11/22 06:02:05;;;;;;;1.02;0.93;;;;;;;-0.05;96.98;99713.84;1608578;88;20982;-73
2021/11/22 06:04:31;;;;;;;3.45;1.22;;;;;;;-0.18;96.67;99709.61;1605291;88;20922;-72
2021/11/22 06:07:00;;;;;;;2.58;1.25;;;;;;;-0.25;96.81;99712.20;1606244;87;21928;-72
2021/11/22 06:09:27;;;;;;;5.12;2.47;;;;;;;-0.34;96.79;99709.64;1603769;87;21021;-72
2021/11/22 06:11:53;;;;;;;4.53;2.25;;;;;;;-0.44;96.76;99720.81;1609795;87;20953;-72
2021/11/22 06:14:20;;;;;;;9.63;2.62;;;;;;;-0.50;96.84;99718.27;1605462;87;21581;-72
2021/11/22 06:16:47;;;;;;;4.90;2.62;;;;;;;-0.58;96.79;99727.69;1614007;87;21006;-75
2021/11/22 06:19:14;;;;;;;4.50;2.58;;;;;;;-0.58;97.12;99725.13;1636821;86;22262;-75
2021/11/22 06:21:41;;;;;;;4.25;2.40;;;;;;;-0.56;97.19;99723.39;1635777;86;20978;-74
2021/11/22 06:24:08;;;;;;;4.17;2.08;;;;;;;-0.55;97.31;99731.53;1616120;87;21457;-75
2021/11/22 06:26:35;;;;;;;4.25;2.50;;;;;;;-0.57;97.29;99740.49;1635647;86;21430;-72
2021/11/22 06:29:01;;;;;;;7.17;2.67;;;;;;;-0.62;97.04;99738.79;1631937;87;21480;-72
2021/11/22 06:31:28;;;;;;;4.90;2.77;;;;;;;-0.68;96.98;99745.63;1627357;86;21156;-73
2021/11/22 06:33:55;;;;;;;7.43;3.27;;;;;;;-0.68;97.21;99750.77;1632062;86;21482;-72
2021/11/22 06:36:22;;;;;;;9.70;4.35;;;;;;;-0.66;97.25;99756.34;1637884;86;20991;-73
2021/11/22 06:38:49;;;;;;;10.38;4.87;;;;;;;-0.60;97.47;99746.06;1629346;86;21001;-72
2021/11/22 06:41:15;;;;;;;6.75;3.72;;;;;;;-0.54;97.52;99755.02;1628389;86;21481;-72
2021/11/22 06:43:42;;;;;;;6.12;2.72;;;;;;;-0.47;97.59;99760.14;1635444;86;21056;-72
2021/11/22 06:46:11;;;;;;;8.40;3.12;;;;;;;-0.40;97.68;99773.80;1637992;87;21076;-72
2021/11/22 06:48:37;;;;;;;7.10;3.00;;;;;;;-0.36;97.54;99780.66;1634794;86;21104;-72
2021/11/22 06:51:04;;;;;;;6.23;3.33;;;;;;;-0.31;97.57;99785.75;1600320;88;20950;-72
2021/11/22 06:53:31;;;;;;;7.37;2.98;;;;;;;-0.30;97.43;99794.75;1635759;86;21720;-72
2021/11/22 06:55:58;;;;;;;9.23;3.33;;;;;;;-0.26;97.47;99799.00;1623599;86;21056;-73
2021/11/22 06:58:25;;;;;;;6.90;3.10;;;;;;;-0.23;97.40;99798.98;1629439;86;20945;-72
2021/11/22 07:00:52;;;;;;;6.60;3.05;;;;;;;-0.12;97.60;99812.23;1637016;86;21086;-72
2021/11/22 07:03:19;;;;;;;3.62;2.22;;;;;;;-0.05;97.61;99813.94;1638896;86;20960;-72
2021/11/22 07:05:47;;;;;;;6.17;1.73;;;;;;;-0.02;97.45;99812.22;1637236;86;20946;-72
2021/11/22 07:08:14;;;;;;;5.30;2.87;;;;;;;-0.09;96.95;99823.78;1636503;86;21063;-72
2021/11/22 07:10:41;;;;;;;12.13;5.35;;;;;;;-0.15;96.82;99822.52;1632329;86;20978;-72
2021/11/22 07:13:07;;;;;;;27.52;16.85;;;;;;;-0.10;97.14;99828.49;1630947;87;20891;-73
2021/11/22 07:15:35;;;;;;;52.33;31.65;;;;;;;-0.02;97.20;99822.91;1630318;86;20915;-72
2021/11/22 07:18:03;;;;;;;34.80;21.82;;;;;;;0.05;97.25;99827.16;1635937;86;22092;-73
2021/11/22 07:20:32;;;;;;;39.42;25.95;;;;;;;0.13;97.24;99825.86;1617581;87;21233;-72
2021/11/22 07:22:59;;;;;;;11.88;7.05;;;;;;;0.15;96.99;99835.27;1639046;86;21079;-76
2021/11/22 07:25:27;;;;;;;7.80;5.08;;;;;;;0.12;96.89;99837.84;1626270;86;21541;-71
2021/11/22 07:27:54;;;;;;;;;;;;;;;0.17;97.27;99851.97;1629873;86;21001;-72
2021/11/22 07:30:21;;;;;;;8.88;4.30;;;;;;;0.25;97.49;99844.22;1621129;86;20460;-72
2021/11/22 07:32:52;;;;;;;8.95;4.45;;;;;;;0.32;97.71;99854.91;1611215;87;21234;-72
2021/11/22 07:35:22;;;;;;;9.95;4.65;;;;;;;0.39;97.85;99857.86;1629812;86;20970;-71
2021/11/22 07:37:50;;;;;;;7.12;5.00;;;;;;;0.47;97.92;99859.13;1624121;87;21508;-72
2021/11/22 07:40:21;;;;;;;;;;;;;;;0.51;97.85;99859.11;1632809;86;21663;-73
2021/11/22 07:42:45;;;;;;;7.53;4.92;;;;;;;0.55;97.83;99868.50;1629736;86;20130;-72
2021/11/22 07:45:12;;;;;;;8.45;5.58;;;;;;;0.58;97.55;99864.63;1626438;87;21915;-72
2021/11/22 07:47:39;;;;;;;7.03;4.07;;;;;;;0.59;97.42;99870.22;1625697;86;20970;-72
2021/11/22 07:50:07;;;;;;;6.65;3.75;;;;;;;0.64;97.35;99872.74;1626748;86;21075;-72
2021/11/22 07:52:34;;;;;;;7.62;3.90;;;;;;;0.70;97.21;99877.00;1626364;86;20899;-72
2021/11/22 07:55:01;;;;;;;2.98;2.30;;;;;;;0.75;97.12;99885.55;1633346;86;20982;-71
2021/11/22 07:57:28;;;;;;;4.05;2.15;;;;;;;0.74;97.01;99883.85;1629188;86;20999;-71
2021/11/22 07:59:55;;;;;;;;;;;;;;;0.66;96.88;99885.16;1638064;86;20950;-72
2021/11/22 08:02:22;;;;;;;4.70;2.50;;;;;;;0.56;96.97;99886.93;1635111;86;20442;-71
2021/11/22 08:04:48;;;;;;;5.03;2.25;;;;;;;0.47;97.12;99890.80;1630086;86;21268;-71
2021/11/22 08:07:19;;;;;;;2.92;1.37;;;;;;;0.44;97.31;99895.95;1607066;87;20921;-71
2021/11/22 08:12:26;;;;;;;2.55;0.95;;;;;;;0.43;97.67;99912.23;1637767;86;21021;-71
2021/11/22 08:14:57;;;;;;;1.80;0.93;;;;;;;0.40;97.76;99914.38;1639674;86;21557;-71
2021/11/22 08:17:25;;;;;;;1.37;0.80;;;;;;;0.39;97.87;99916.94;1626711;86;21052;-72
2021/11/22 08:19:53;;;;;;;0.90;0.70;;;;;;;0.39;97.99;99914.37;1639756;86;20989;-71
2021/11/22 08:22:22;;;;;;;2.10;0.95;;;;;;;0.38;98.01;99916.52;1637673;86;21983;-72
2021/11/22 08:24:52;;;;;;;1.67;0.90;;;;;;;0.40;98.03;99915.66;1630048;86;20911;-72
2021/11/22 08:27:21;;;;;;;0.60;0.50;;;;;;;0.46;98.06;99924.22;1630352;86;21038;-72
2021/11/22 08:29:48;;;;;;;1.62;1.17;;;;;;;0.46;98.04;99913.51;1631173;86;20942;-71
2021/11/22 08:32:16;;;;;;;6.65;4.72;;;;;;;0.49;98.06;99923.77;1634953;86;21539;-72
2021/11/22 08:34:42;;;;;;;3.40;2.00;;;;;;;0.47;97.96;99926.77;1630486;86;27081;-72
2021/11/22 08:37:09;;;;;;;1.05;0.70;;;;;;;0.53;98.02;99933.59;1628202;86;20938;-72
2021/11/22 08:39:37;;;;;;;0.30;0.20;;;;;;;0.61;98.01;99935.28;1634015;86;21010;-73
2021/11/22 08:42:04;;;;;;;0.10;0.10;;;;;;;0.71;98.17;99914.70;1632416;86;21112;-72
2021/11/22 08:44:33;;;;;;;1.60;0.75;;;;;;;0.81;98.25;99921.50;1636029;86;22071;-74
2021/11/22 08:47:01;;;;;;;0.78;0.13;;;;;;;0.88;98.23;99918.05;1630727;86;21154;-72
2021/11/22 08:49:28;;;;;;;0.20;0.20;;;;;;;0.95;98.17;99915.86;1626562;87;20970;-73
2021/11/22 08:51:55;;;;;;;0.28;0.20;;;;;;;1.09;98.36;99922.22;1630344;87;20974;-71
2021/11/22 08:54:22;;;;;;;0.68;0.25;;;;;;;1.23;98.35;99937.57;1633636;86;20939;-74
2021/11/22 08:56:49;;;;;;;0.30;0.20;;;;;;;1.36;98.42;99936.64;1602151;87;20958;-73
2021/11/22 08:59:17;;;;;;;0.40;0.20;;;;;;;1.48;98.56;99935.70;1626761;86;21158;-76
2021/11/22 09:01:44;;;;;;;0.37;0.10;;;;;;;1.59;98.45;99941.63;1630633;86;21000;-73
2021/11/22 09:04:10;;;;;;;0.25;0.20;;;;;;;1.66;98.26;99945.02;1634276;86;21000;-73
2021/11/22 09:06:37;;;;;;;1.80;0.30;;;;;;;1.74;98.26;99950.97;1637345;86;20918;-72
2021/11/22 09:09:07;;;;;;;0.53;0.30;;;;;;;1.79;98.04;99949.19;1618139;87;20982;-72
2021/11/22 09:11:35;;;;;;;0.30;0.17;;;;;;;1.76;97.33;99956.94;1628222;86;21050;-72
2021/11/22 09:14:05;;;;;;;1.45;0.78;;;;;;;1.78;97.67;99960.36;1619592;87;21510;-72
2021/11/22 09:16:32;;;;;;;2.47;0.98;;;;;;;1.82;97.53;99956.92;1639575;86;20930;-73
2021/11/22 09:19:02;;;;;;;25.27;12.40;;;;;;;1.80;97.37;99959.93;1591868;87;20997;-73
2021/11/22 09:21:28;;;;;;;14.00;7.70;;;;;;;1.77;97.15;99957.38;1615944;86;21000;-74
2021/11/22 09:23:56;;;;;;;8.13;5.03;;;;;;;1.74;96.94;99952.27;1616406;86;21069;-73
2021/11/22 09:26:23;;;;;;;11.70;6.97;;;;;;;1.77;97.31;99961.24;1616222;87;21003;-72
2021/11/22 09:28:53;;;;;;;13.85;8.05;;;;;;;1.78;97.19;99955.22;1625275;86;20992;-71
2021/11/22 09:31:23;;;;;;;16.32;6.85;;;;;;;1.84;97.52;99951.30;1626732;87;22911;-73
2021/11/22 09:33:52;;;;;;;12.20;8.03;;;;;;;2.02;98.05;99956.75;1622981;87;20999;-72
2021/11/22 09:36:20;;;;;;;11.73;6.22;;;;;;;2.16;97.95;99945.03;1618523;86;21224;-72
2021/11/22 09:38:47;;;;;;;12.88;7.33;;;;;;;2.17;97.52;99945.45;1618886;86;20985;-74
2021/11/22 09:41:14;;;;;;;21.73;9.28;;;;;;;2.18;97.39;99953.14;1614833;87;21040;-73
2021/11/22 09:43:50;;;;;;;32.00;16.87;;;;;;;2.18;97.16;99958.30;1618798;86;20993;-74
2021/11/22 09:46:17;;;;;;;26.23;13.83;;;;;;;2.21;97.25;99959.98;1620281;87;20978;-74
2021/11/22 09:48:45;;;;;;;31.00;14.63;;;;;;;2.23;97.18;99965.98;1624078;86;20929;-74
2021/11/22 09:51:12;;;;;;;35.58;14.38;;;;;;;2.22;97.07;99959.98;1614669;86;20966;-74
2021/11/22 09:53:41;;;;;;;25.10;11.68;;;;;;;2.25;97.07;99966.84;1594458;87;28685;-73
2021/11/22 09:56:10;;;;;;;24.47;12.37;;;;;;;2.28;97.23;99957.79;1615855;86;20972;-74
2021/11/22 09:58:36;;;;;;;22.27;9.53;;;;;;;2.38;97.55;99965.86;1616715;87;20929;-74
2021/11/22 10:01:13;;;;;;;12.30;5.73;;;;;;;2.54;97.86;99961.81;1623465;86;22388;-74
2021/11/22 10:03:39;;;;;;;10.45;5.53;;;;;;;2.62;97.57;99969.03;1606654;86;20913;-74
2021/11/22 10:06:06;;;;;;;9.25;4.70;;;;;;;2.68;97.33;99971.54;1610376;86;20937;-74
2021/11/22 10:08:42;;;;;;;9.85;4.10;;;;;;;2.79;97.55;99967.56;1609485;86;20913;-74
2021/11/22 10:11:12;;;;;;;9.35;4.80;;;;;;;2.85;97.41;99969.62;1613561;86;20975;-75
2021/11/22 10:13:52;;;;;;;9.58;4.28;;;;;;;3.05;97.98;99965.94;1625141;86;21222;-73
2021/11/22 10:16:23;;;;;;;28.02;18.12;;;;;;;3.23;98.22;99961.84;1622504;86;20980;-74
2021/11/22 10:18:59;;;;;;;40.03;23.50;;;;;;;3.39;98.13;99961.20;1623242;86;20978;-74
2021/11/22 10:21:37;;;;;;;27.30;16.00;;;;;;;3.51;98.20;99965.33;1608602;87;21013;-74
2021/11/22 10:24:08;;;;;;;16.15;9.48;;;;;;;3.58;97.90;99960.48;1604041;87;21021;-74
2021/11/22 10:26:50;;;;;;;15.88;9.53;;;;;;;3.55;97.16;99964.40;1585875;88;22566;-75
2021/11/22 10:29:28;;;;;;;5.67;2.98;;;;;;;3.45;96.68;99962.84;1600001;87;21007;-74
2021/11/22 10:31:59;;;;;;;4.45;2.05;;;;;;;3.34;96.68;99963.84;1615529;87;20926;-74
2021/11/22 10:34:26;;;;;;;2.47;0.90;;;;;;;3.39;97.46;99953.46;1597092;88;21460;-74
2021/11/22 10:37:01;;;;;;;;;;;;;;;3.43;97.23;99957.69;1607755;87;20994;-74
2021/11/22 10:39:30;;;;;;;2.00;0.93;;;;;;;3.51;97.90;99949.84;1608757;87;21039;-74
2021/11/22 10:43:19;;;;;;;2.15;1.15;;;;;;;3.59;98.10;99954.45;1613053;88;20977;-75
2021/11/22 10:45:35;;;;;;;2.70;1.32;;;;;;;3.64;98.15;99953.95;1595567;88;20986;-75
2021/11/22 10:48:11;;;;;;;3.80;1.75;;;;;;;3.64;98.12;99959.12;1579614;89;21033;-76
2021/11/22 10:50:36;;;;;;;1.62;1.22;;;;;;;3.57;97.94;99966.09;1577163;88;21092;-75
2021/11/22 10:53:04;;;;;;;2.25;1.20;;;;;;;3.53;97.93;99964.88;1583324;88;22553;-75
2021/11/22 10:55:48;;;;;;;2.22;1.20;;;;;;;3.55;97.98;99970.85;1583355;88;21207;-74
2021/11/22 10:58:40;;;;;;;2.67;1.27;;;;;;;3.63;98.10;99969.02;1574427;88;21422;-75
2021/11/22 11:01:33;;;;;;;1.57;1.00;;;;;;;3.81;98.51;99972.62;1550989;90;21540;-75
2021/11/22 11:04:20;;;;;;;4.78;1.30;;;;;;;4.07;98.61;99976.51;1550504;90;21012;-75
2021/11/22 11:07:00;;;;;;;6.17;1.40;;;;;;;4.10;97.34;99975.16;1553452;90;22023;-75
2021/11/22 11:09:37;;;;;;;4.97;2.22;;;;;;;4.04;96.83;99981.73;1561824;90;20997;-75
2021/11/22 11:12:17;;;;;;;7.47;2.67;;;;;;;3.80;95.37;99978.64;1556697;90;21436;-74
2021/11/22 11:14:54;;;;;;;4.65;1.30;;;;;;;3.55;95.69;99987.63;1554148;90;21057;-75
2021/11/22 11:17:33;;;;;;;4.95;1.75;;;;;;;3.35;95.38;99988.77;1555065;90;21121;-74
2021/11/22 11:20:08;;;;;;;2.35;1.57;;;;;;;3.28;96.15;99989.73;1564016;90;21136;-74
2021/11/22 11:22:35;;;;;;;4.60;3.02;;;;;;;3.38;96.71;99990.45;1584471;89;20930;-74
2021/11/22 11:25:04;;;;;;;2.62;1.42;;;;;;;3.40;96.69;99990.45;1596184;88;20951;-74
2021/11/22 11:27:34;;;;;;;3.10;1.70;;;;;;;3.42;96.63;99995.13;1593586;88;20953;-74
2021/11/22 11:30:04;;;;;;;3.10;1.27;;;;;;;3.41;96.68;99993.44;1593566;88;21010;-74
2021/11/22 11:32:31;;;;;;;2.30;1.10;;;;;;;3.46;96.76;99988.63;1594518;88;21070;-74
2021/11/22 11:34:59;;;;;;;3.33;0.80;;;;;;;3.52;97.03;99986.39;1594229;88;21965;-73
2021/11/22 11:37:37;;;;;;;3.15;1.42;;;;;;;3.65;97.45;99984.05;1596477;88;20985;-74
2021/11/22 11:40:26;;;;;;;1.00;0.85;;;;;;;3.77;97.55;99989.02;1624467;86;21087;-74
2021/11/22 11:43:44;;;;;;;2.72;0.93;;;;;;;3.89;97.70;99984.55;1621898;86;20929;-74
2021/11/22 11:46:42;;;;;;;4.20;1.07;;;;;;;4.01;97.76;99989.53;1616447;87;21082;-74
2021/11/22 11:49:12;;;;;;;2.80;0.85;;;;;;;4.09;97.50;99988.97;1613657;87;20952;-75
2021/11/22 11:51:46;;;;;;;1.77;0.70;;;;;;;4.06;97.11;99986.41;1627359;86;20985;-74